createdAt,value
2022-08-07T00:00:24.264Z,101765.22
2022-08-07T00:02:51.297Z,101772.53
2022-08-07T00:05:21.137Z,101771.13
2022-08-07T00:07:59.678Z,101762.63
2022-08-07T00:10:30.545Z,101766.38
2022-08-07T00:13:09.754Z,101759.44
2022-08-07T00:15:51.009Z,101758.19
2022-08-07T00:18:24.383Z,101766.25
2022-08-07T00:20:57.550Z,101761.94
2022-08-07T00:23:31.215Z,101769.25
2022-08-07T00:26:01.798Z,101757.19
2022-08-07T00:28:34.538Z,101763.00
2022-08-07T00:31:16.501Z,101761.34
2022-08-07T00:33:47.417Z,101757.84
2022-08-07T00:36:14.828Z,101753.31
2022-08-07T00:38:43.618Z,101750.63
2022-08-07T00:41:15.053Z,101746.47
2022-08-07T00:44:00.754Z,101748.53
2022-08-07T00:46:33.014Z,101750.50
2022-08-07T00:49:03.795Z,101754.31
2022-08-07T00:51:57.211Z,101745.72
2022-08-07T00:54:19.829Z,101751.34
2022-08-07T00:56:49.813Z,101750.66
2022-08-07T00:59:17.811Z,101751.41
2022-08-07T01:01:48.720Z,101746.06
2022-08-07T01:04:24.820Z,101744.34
2022-08-07T01:06:52.200Z,101747.16
2022-08-07T01:10:05.182Z,101739.34
2022-08-07T01:12:27.909Z,101740.19
2022-08-07T01:15:01.296Z,101737.75
2022-08-07T01:17:29.956Z,101734.41
2022-08-07T01:20:05.419Z,101736.28
2022-08-07T01:22:33.552Z,101740.84
2022-08-07T01:25:01.113Z,101735.16
2022-08-07T01:27:32.266Z,101730.94
2022-08-07T01:30:00.680Z,101736.53
2022-08-07T01:32:29.108Z,101742.94
2022-08-07T01:34:56.387Z,101743.16
2022-08-07T01:37:24.695Z,101737.91
2022-08-07T01:39:52.305Z,101745.03
2022-08-07T01:42:39.624Z,101744.28
2022-08-07T01:45:15.860Z,101740.94
2022-08-07T01:48:18.426Z,101747.03
2022-08-07T01:50:33.850Z,101738.34
2022-08-07T01:53:08.895Z,101740.38
2022-08-07T01:56:02.951Z,101744.91
2022-08-07T01:58:37.527Z,101746.59
2022-08-07T02:01:25.324Z,101743.31
2022-08-07T02:04:18.682Z,101745.53
2022-08-07T02:06:46.566Z,101731.66
2022-08-07T02:09:33.824Z,101742.28
2022-08-07T02:12:17.953Z,101734.59
2022-08-07T02:14:52.685Z,101736.88
2022-08-07T02:17:27.701Z,101741.41
2022-08-07T02:20:09.988Z,101743.19
2022-08-07T02:22:47.396Z,101739.81
2022-08-07T02:26:10.505Z,101743.69
2022-08-07T02:28:14.513Z,101743.94
2022-08-07T02:30:52.894Z,101744.44
2022-08-07T02:33:20.509Z,101742.09
2022-08-07T02:36:30.821Z,101736.94
2022-08-07T02:38:39.214Z,101738.75
2022-08-07T02:41:21.659Z,101734.34
2022-08-07T02:43:49.609Z,101734.50
2022-08-07T02:46:19.750Z,101736.34
2022-08-07T02:48:54.672Z,101734.63
2022-08-07T02:51:41.704Z,101739.06
2022-08-07T02:54:13.226Z,101742.56
2022-08-07T02:56:42.068Z,101740.72
2022-08-07T02:59:11.764Z,101732.81
2022-08-07T03:01:40.199Z,101740.00
2022-08-07T03:04:12.778Z,101739.41
2022-08-07T03:06:44.710Z,101735.16
2022-08-07T03:09:13.977Z,101737.81
2022-08-07T03:11:51.700Z,101729.91
2022-08-07T03:14:20.233Z,101726.47
2022-08-07T03:16:49.705Z,101729.06
2022-08-07T03:19:20.047Z,101735.34
2022-08-07T03:21:50.566Z,101723.06
2022-08-07T03:24:26.886Z,101720.47
2022-08-07T03:26:59.858Z,101720.69
2022-08-07T03:29:33.954Z,101734.06
2022-08-07T03:32:08.352Z,101722.47
2022-08-07T03:34:47.426Z,101729.59
2022-08-07T03:37:32.700Z,101720.97
2022-08-07T03:40:15.699Z,101714.00
2022-08-07T03:42:43.849Z,101714.06
2022-08-07T03:45:12.310Z,101720.09
2022-08-07T03:47:58.786Z,101722.00
2022-08-07T03:50:25.923Z,101730.72
2022-08-07T03:52:58.584Z,101721.94
2022-08-07T03:55:52.833Z,101734.28
2022-08-07T03:59:04.903Z,101726.59
2022-08-07T04:01:01.356Z,101722.38
2022-08-07T04:03:28.128Z,101718.09
2022-08-07T04:06:37.238Z,101724.41
2022-08-07T04:09:02.808Z,101722.97
2022-08-07T04:12:21.355Z,101719.63
2022-08-07T04:14:38.027Z,101712.66
2022-08-07T04:17:19.777Z,101716.09
2022-08-07T04:19:55.149Z,101719.53
2022-08-07T04:22:29.479Z,101715.06
2022-08-07T04:24:58.832Z,101715.84
2022-08-07T04:27:29.077Z,101703.69
2022-08-07T04:30:04.715Z,101709.78
2022-08-07T04:32:38.039Z,101706.41
2022-08-07T04:35:11.112Z,101713.53
2022-08-07T04:37:52.852Z,101704.84
2022-08-07T04:40:26.658Z,101701.59
2022-08-07T04:43:01.577Z,101709.59
2022-08-07T04:45:57.490Z,101702.56
2022-08-07T04:48:27.996Z,101703.41
2022-08-07T04:51:05.140Z,101707.00
2022-08-07T04:54:05.395Z,101704.31
2022-08-07T04:58:14.422Z,101701.66
2022-08-07T05:00:30.154Z,101699.91
2022-08-07T05:04:01.102Z,101713.16
2022-08-07T05:06:25.103Z,101706.88
2022-08-07T05:09:28.074Z,101713.09
2022-08-07T05:12:15.471Z,101713.09
2022-08-07T05:14:59.016Z,101715.56
2022-08-07T05:17:52.345Z,101711.88
2022-08-07T05:20:25.780Z,101708.91
2022-08-07T05:22:57.033Z,101717.41
2022-08-07T05:26:11.040Z,101717.13
2022-08-07T05:28:19.923Z,101719.66
2022-08-07T05:30:49.043Z,101723.94
2022-08-07T05:33:18.154Z,101721.22
2022-08-07T05:35:50.790Z,101729.88
2022-08-07T05:39:01.046Z,101734.22
2022-08-07T05:41:14.054Z,101733.97
2022-08-07T05:44:07.629Z,101733.91
2022-08-07T05:46:36.353Z,101741.69
2022-08-07T05:49:11.790Z,101737.13
2022-08-07T05:51:46.623Z,101732.63
2022-08-07T05:54:31.211Z,101742.44
2022-08-07T05:57:03.509Z,101747.03
2022-08-07T05:59:38.991Z,101745.41
2022-08-07T06:02:22.010Z,101743.66
2022-08-07T06:04:59.839Z,101746.13
2022-08-07T06:08:09.335Z,101745.22
2022-08-07T06:10:15.936Z,101750.25
2022-08-07T06:12:42.760Z,101753.50
2022-08-07T06:15:15.196Z,101760.38
2022-08-07T06:17:53.480Z,101761.06
2022-08-07T06:20:25.485Z,101759.94
2022-08-07T06:23:02.305Z,101763.34
2022-08-07T06:25:54.601Z,101766.50
2022-08-07T06:28:28.114Z,101762.81
2022-08-07T06:30:56.316Z,101757.31
2022-08-07T06:33:25.722Z,101757.06
2022-08-07T06:36:12.856Z,101756.75
2022-08-07T06:38:58.736Z,101755.50
2022-08-07T06:42:19.476Z,101757.88
2022-08-07T06:44:57.066Z,101749.50
2022-08-07T06:47:24.643Z,101760.63
2022-08-07T06:49:58.757Z,101762.09
2022-08-07T06:52:35.711Z,101762.69
2022-08-07T06:55:32.081Z,101753.66
2022-08-07T06:57:59.915Z,101757.78
2022-08-07T07:00:31.084Z,101759.19
2022-08-07T07:03:01.027Z,101759.75
2022-08-07T07:06:02.762Z,101753.22
2022-08-07T07:08:30.094Z,101755.59
2022-08-07T07:11:00.897Z,101750.81
2022-08-07T07:13:55.723Z,101757.44
2022-08-07T07:16:30.503Z,101751.97
2022-08-07T07:19:54.626Z,101758.53
2022-08-07T07:22:05.454Z,101753.78
2022-08-07T07:25:03.118Z,101763.97
2022-08-07T07:27:55.567Z,101758.34
2022-08-07T07:30:38.064Z,101762.41
2022-08-07T07:33:08.363Z,101769.91
2022-08-07T07:35:44.144Z,101760.72
2022-08-07T07:38:27.570Z,101762.06
2022-08-07T07:41:02.728Z,101760.81
2022-08-07T07:44:14.475Z,101760.59
2022-08-07T07:46:36.936Z,101760.97
2022-08-07T07:50:34.298Z,101762.44
2022-08-07T07:52:01.515Z,101756.69
2022-08-07T07:54:33.136Z,101765.16
2022-08-07T07:57:04.978Z,101765.78
2022-08-07T07:59:51.733Z,101762.78
2022-08-07T08:02:33.763Z,101751.81
2022-08-07T08:05:14.520Z,101755.00
2022-08-07T08:07:59.535Z,101742.44
2022-08-07T08:10:38.241Z,101749.25
2022-08-07T08:13:10.676Z,101752.44
2022-08-07T08:15:58.487Z,101752.25
2022-08-07T08:18:28.382Z,101751.88
2022-08-07T08:20:55.879Z,101744.50
2022-08-07T08:23:42.933Z,101742.44
2022-08-07T08:26:31.302Z,101744.66
2022-08-07T08:29:01.242Z,101745.25
2022-08-07T08:32:18.191Z,101742.25
2022-08-07T08:34:27.300Z,101739.16
2022-08-07T08:36:58.341Z,101738.88
2022-08-07T08:39:39.299Z,101734.22
2022-08-07T08:42:25.875Z,101730.38
2022-08-07T08:45:18.832Z,101735.34
2022-08-07T08:48:02.078Z,101737.66
2022-08-07T08:50:49.305Z,101733.00
2022-08-07T08:53:37.388Z,101731.78
2022-08-07T08:56:31.228Z,101728.66
2022-08-07T08:59:18.402Z,101722.00
2022-08-07T09:02:35.134Z,101715.63
2022-08-07T09:05:43.588Z,101727.50
2022-08-07T09:09:13.417Z,101726.28
2022-08-07T09:12:31.681Z,101715.22
2022-08-07T09:16:25.455Z,101719.25
2022-08-07T09:18:52.885Z,101711.72
2022-08-07T09:21:58.127Z,101721.94
2022-08-07T09:24:59.305Z,101711.81
2022-08-07T09:28:00.297Z,101714.28
2022-08-07T09:31:08.520Z,101708.56
2022-08-07T09:34:11.772Z,101705.63
2022-08-07T09:36:57.990Z,101698.94
2022-08-07T09:39:54.696Z,101696.75
2022-08-07T09:42:53.204Z,101691.97
2022-08-07T09:47:51.765Z,101695.97
2022-08-07T09:50:00.853Z,101696.63
2022-08-07T09:52:34.515Z,101694.41
2022-08-07T09:55:29.713Z,101687.81
2022-08-07T09:58:31.895Z,101690.97
2022-08-07T10:01:51.100Z,101692.59
2022-08-07T10:04:53.105Z,101694.22
2022-08-07T10:08:00.645Z,101688.69
2022-08-07T10:11:59.705Z,101683.03
2022-08-07T10:14:07.867Z,101681.09
2022-08-07T10:17:00.913Z,101671.91
2022-08-07T10:19:48.071Z,101663.47
2022-08-07T10:23:09.655Z,101665.97
2022-08-07T10:25:58.525Z,101655.94
2022-08-07T10:28:58.439Z,101664.94
2022-08-07T10:32:16.524Z,101661.44
2022-08-07T10:35:14.897Z,101664.91
2022-08-07T10:38:21.084Z,101650.22
2022-08-07T10:41:46.444Z,101651.53
2022-08-07T10:44:28.426Z,101649.97
2022-08-07T10:47:26.975Z,101643.00
2022-08-07T10:50:34.226Z,101638.06
2022-08-07T10:53:13.335Z,101641.91
2022-08-07T10:55:58.956Z,101642.44
2022-08-07T10:58:59.574Z,101638.59
2022-08-07T11:01:35.830Z,101639.72
2022-08-07T11:04:38.138Z,101637.59
2022-08-07T11:07:58.549Z,101632.88
2022-08-07T11:10:57.812Z,101635.09
2022-08-07T11:14:45.144Z,101638.72
2022-08-07T11:17:02.208Z,101626.47
2022-08-07T11:19:46.421Z,101635.81
2022-08-07T11:22:26.386Z,101634.38
2022-08-07T11:24:53.998Z,101628.66
2022-08-07T11:28:02.554Z,101616.03
2022-08-07T11:30:41.553Z,101619.00
2022-08-07T11:33:59.242Z,101612.31
2022-08-07T11:36:30.952Z,101606.25
2022-08-07T11:39:03.835Z,101604.09
2022-08-07T11:42:01.571Z,101607.16
2022-08-07T11:44:36.672Z,101594.22
2022-08-07T11:47:30.407Z,101594.75
2022-08-07T11:50:31.201Z,101587.31
2022-08-07T11:53:10.021Z,101582.69
2022-08-07T11:56:26.137Z,101588.38
2022-08-07T12:02:52.763Z,101572.88
2022-08-07T12:05:49.546Z,101571.69
2022-08-07T12:08:38.477Z,101561.16
2022-08-07T12:11:32.432Z,101557.59
2022-08-07T12:14:11.374Z,101569.81
2022-08-07T12:16:46.764Z,101568.47
2022-08-07T12:19:21.827Z,101565.16
2022-08-07T12:22:56.412Z,101566.25
2022-08-07T12:26:03.391Z,101571.13
2022-08-07T12:28:56.945Z,101575.25
2022-08-07T12:31:53.016Z,101558.28
2022-08-07T12:34:33.105Z,101563.38
2022-08-07T12:37:01.568Z,101563.59
2022-08-07T12:39:44.107Z,101565.91
2022-08-07T12:42:27.135Z,101557.44
2022-08-07T12:44:58.278Z,101561.59
2022-08-07T12:47:32.904Z,101554.97
2022-08-07T12:50:38.808Z,101546.25
2022-08-07T12:53:18.120Z,101548.53
2022-08-07T12:56:16.915Z,101542.91
2022-08-07T12:58:46.887Z,101543.38
2022-08-07T13:01:47.718Z,101546.44
2022-08-07T13:04:44.157Z,101539.66
2022-08-07T13:08:11.975Z,101537.56
2022-08-07T13:10:55.819Z,101537.03
2022-08-07T13:13:48.153Z,101539.47
2022-08-07T13:16:13.091Z,101531.00
2022-08-07T13:18:50.716Z,101525.22
2022-08-07T13:21:50.178Z,101529.44
2022-08-07T13:24:25.773Z,101527.19
2022-08-07T13:27:10.992Z,101527.81
2022-08-07T13:30:04.100Z,101523.97
2022-08-07T13:32:45.767Z,101510.25
2022-08-07T13:36:01.112Z,101525.84
2022-08-07T13:38:55.867Z,101517.97
2022-08-07T13:41:42.760Z,101527.22
2022-08-07T13:44:26.098Z,101517.63
2022-08-07T13:46:59.467Z,101511.09
2022-08-07T13:50:32.841Z,101520.88
2022-08-07T13:52:30.670Z,101511.81
2022-08-07T13:55:07.497Z,101506.03
2022-08-07T13:57:59.169Z,101503.47
2022-08-07T14:00:50.472Z,101503.06
2022-08-07T14:03:30.065Z,101505.63
2022-08-07T14:06:13.059Z,101496.28
2022-08-07T14:08:48.615Z,101509.06
2022-08-07T14:11:23.683Z,101488.94
2022-08-07T14:14:02.126Z,101495.31
2022-08-07T14:16:36.489Z,101487.25
2022-08-07T14:19:17.887Z,101483.13
2022-08-07T14:22:11.451Z,101479.84
2022-08-07T14:24:43.046Z,101478.97
2022-08-07T14:28:11.084Z,101482.66
2022-08-07T14:33:01.856Z,101486.47
2022-08-07T14:35:34.477Z,101483.63
2022-08-07T14:38:26.279Z,101479.25
2022-08-07T14:41:01.276Z,101487.31
2022-08-07T14:43:57.180Z,101486.00
2022-08-07T14:46:30.604Z,101472.34
2022-08-07T14:49:55.783Z,101469.97
2022-08-07T14:54:49.146Z,101470.38
2022-08-07T14:57:25.441Z,101471.03
2022-08-07T15:00:29.689Z,101461.88
2022-08-07T15:03:19.361Z,101456.59
2022-08-07T15:08:54.529Z,101459.16
2022-08-07T15:14:30.864Z,101464.09
2022-08-07T15:17:04.295Z,101463.66
2022-08-07T15:20:30.959Z,101450.69
2022-08-07T15:22:31.360Z,101448.38
2022-08-07T15:25:18.334Z,101452.47
2022-08-07T15:31:05.152Z,101442.72
2022-08-07T15:33:33.788Z,101448.06
2022-08-07T15:36:06.230Z,101446.97
2022-08-07T15:38:51.229Z,101437.88
2022-08-07T15:42:45.245Z,101436.75
2022-08-07T15:44:17.478Z,101424.78
2022-08-07T15:46:52.582Z,101426.34
2022-08-07T15:52:17.182Z,101422.25
2022-08-07T15:54:50.861Z,101417.28
2022-08-07T15:57:40.270Z,101414.47
2022-08-07T16:00:32.214Z,101407.91
2022-08-07T16:03:01.725Z,101411.13
2022-08-07T16:05:31.296Z,101406.25
2022-08-07T16:08:32.553Z,101405.63
2022-08-07T16:11:26.798Z,101410.41
2022-08-07T16:14:09.628Z,101403.78
2022-08-07T16:17:15.150Z,101397.22
2022-08-07T16:20:03.737Z,101405.50
2022-08-07T16:22:55.269Z,101406.53
2022-08-07T16:25:53.062Z,101404.72
2022-08-07T16:30:08.294Z,101400.25
2022-08-07T16:31:57.737Z,101395.34
2022-08-07T16:34:31.140Z,101402.97
2022-08-07T16:37:02.661Z,101401.31
2022-08-07T16:40:28.315Z,101394.72
2022-08-07T16:43:21.786Z,101401.53
2022-08-07T16:47:06.487Z,101397.50
2022-08-07T16:50:28.562Z,101400.19
2022-08-07T16:52:50.649Z,101403.91
2022-08-07T16:55:26.873Z,101402.06
2022-08-07T16:58:48.016Z,101396.00
2022-08-07T17:01:34.550Z,101403.13
2022-08-07T17:04:07.762Z,101403.00
2022-08-07T17:07:02.756Z,101401.78
2022-08-07T17:10:07.888Z,101405.88
2022-08-07T17:13:01.860Z,101407.91
2022-08-07T17:15:51.721Z,101414.00
2022-08-07T17:18:25.973Z,101407.91
2022-08-07T17:20:54.065Z,101408.28
2022-08-07T17:23:44.578Z,101403.00
2022-08-07T17:26:29.979Z,101406.06
2022-08-07T17:30:16.159Z,101404.38
2022-08-07T17:32:52.746Z,101401.50
2022-08-07T17:35:50.001Z,101405.91
2022-08-07T17:38:33.934Z,101403.03
2022-08-07T17:42:02.532Z,101395.91
2022-08-07T17:44:49.922Z,101395.03
2022-08-07T17:48:01.710Z,101395.72
2022-08-07T17:50:54.362Z,101396.22
2022-08-07T17:54:00.608Z,101393.88
2022-08-07T17:56:31.662Z,101392.31
2022-08-07T17:59:35.877Z,101393.19
2022-08-07T18:02:17.694Z,101390.63
2022-08-07T18:05:14.205Z,101399.41
2022-08-07T18:08:03.352Z,101390.22
2022-08-07T18:12:06.953Z,101396.31
2022-08-07T18:13:51.432Z,101391.19
2022-08-07T18:16:32.944Z,101393.91
2022-08-07T18:21:04.028Z,101399.34
2022-08-07T18:22:26.192Z,101398.84
2022-08-07T18:25:19.309Z,101397.00
2022-08-07T18:28:33.088Z,101404.19
2022-08-07T18:31:33.913Z,101401.81
2022-08-07T18:34:37.581Z,101407.59
2022-08-07T18:38:55.110Z,101407.66
2022-08-07T18:40:42.471Z,101399.63
2022-08-07T18:43:48.883Z,101407.50
2022-08-07T18:46:25.379Z,101411.44
2022-08-07T18:50:19.275Z,101409.16
2022-08-07T18:52:33.560Z,101420.03
2022-08-07T18:55:43.212Z,101415.47
2022-08-07T18:58:51.639Z,101410.66
2022-08-07T19:02:32.137Z,101419.91
2022-08-07T19:04:57.513Z,101417.22
2022-08-07T19:07:52.018Z,101417.00
2022-08-07T19:10:49.849Z,101429.66
2022-08-07T19:13:25.646Z,101422.31
2022-08-07T19:17:01.510Z,101423.56
2022-08-07T19:19:31.620Z,101424.66
2022-08-07T19:22:07.718Z,101427.28
2022-08-07T19:24:53.072Z,101432.91
2022-08-07T19:28:58.071Z,101430.09
2022-08-07T19:31:04.298Z,101437.00
2022-08-07T19:33:10.041Z,101418.69
2022-08-07T19:35:42.182Z,101434.63
2022-08-07T19:38:16.786Z,101426.84
2022-08-07T19:40:50.530Z,101439.34
2022-08-07T19:43:49.977Z,101444.09
2022-08-07T19:46:26.622Z,101446.94
2022-08-07T19:49:07.555Z,101458.44
2022-08-07T19:51:51.701Z,101458.13
2022-08-07T19:54:33.818Z,101463.94
2022-08-07T19:58:02.615Z,101462.81
2022-08-07T20:00:08.882Z,101473.28
2022-08-07T20:02:52.231Z,101473.72
2022-08-07T20:05:28.204Z,101468.78
2022-08-07T20:08:10.131Z,101467.75
2022-08-07T20:10:52.334Z,101471.72
2022-08-07T20:13:42.330Z,101476.41
2022-08-07T20:16:22.418Z,101475.94
2022-08-07T20:19:00.399Z,101486.50
2022-08-07T20:21:42.197Z,101470.72
2022-08-07T20:24:31.562Z,101467.09
2022-08-07T20:27:07.492Z,101467.78
2022-08-07T20:29:47.752Z,101467.28
2022-08-07T20:32:22.972Z,101467.81
2022-08-07T20:34:56.935Z,101471.19
2022-08-07T20:37:29.731Z,101471.56
2022-08-07T20:40:02.958Z,101477.06
2022-08-07T20:42:33.646Z,101480.84
2022-08-07T20:45:04.334Z,101480.47
2022-08-07T20:47:55.305Z,101485.34
2022-08-07T20:50:22.609Z,101489.31
2022-08-07T20:52:51.442Z,101480.69
2022-08-07T20:55:25.488Z,101484.47
2022-08-07T20:58:04.201Z,101490.97
2022-08-07T21:00:46.414Z,101486.41
2022-08-07T21:03:19.286Z,101493.41
2022-08-07T21:06:03.835Z,101495.09
2022-08-07T21:08:54.222Z,101501.34
2022-08-07T21:11:40.151Z,101504.41
2022-08-07T21:14:33.318Z,101508.19
2022-08-07T21:18:03.478Z,101510.97
2022-08-07T21:20:05.290Z,101498.22
2022-08-07T21:22:44.930Z,101507.06
2022-08-07T21:25:39.027Z,101501.91
2022-08-07T21:28:49.992Z,101507.66
2022-08-07T21:31:31.316Z,101512.19
2022-08-07T21:34:20.642Z,101511.72
2022-08-07T21:36:59.867Z,101510.53
2022-08-07T21:39:46.202Z,101508.94
2022-08-07T21:42:42.570Z,101510.44
2022-08-07T21:46:08.413Z,101519.84
2022-08-07T21:48:37.337Z,101515.97
2022-08-07T21:51:27.797Z,101528.56
2022-08-07T21:54:34.250Z,101527.09
2022-08-07T21:57:39.953Z,101531.00
2022-08-07T22:00:22.664Z,101531.25
2022-08-07T22:03:30.567Z,101529.44
2022-08-07T22:06:28.925Z,101526.88
2022-08-07T22:09:02.925Z,101526.78
2022-08-07T22:12:05.896Z,101531.66
2022-08-07T22:14:36.219Z,101537.63
2022-08-07T22:17:05.867Z,101534.31
2022-08-07T22:19:50.912Z,101537.34
2022-08-07T22:22:29.118Z,101554.66
2022-08-07T22:25:08.392Z,101557.44
2022-08-07T22:28:07.842Z,101562.22
2022-08-07T22:30:40.652Z,101559.66
2022-08-07T22:33:12.476Z,101567.56
2022-08-07T22:36:07.541Z,101570.63
2022-08-07T22:39:05.266Z,101573.28
2022-08-07T22:42:03.521Z,101575.84
2022-08-07T22:44:39.224Z,101574.13
2022-08-07T22:47:32.905Z,101580.34
2022-08-07T22:50:33.025Z,101573.19
2022-08-07T22:54:05.492Z,101573.41
2022-08-07T22:56:29.994Z,101578.66
2022-08-07T22:59:27.025Z,101581.47
2022-08-07T23:02:13.714Z,101578.66
2022-08-07T23:04:58.252Z,101578.66
2022-08-07T23:07:53.944Z,101579.75
2022-08-07T23:10:42.573Z,101583.38
2022-08-07T23:13:29.663Z,101575.22
2022-08-07T23:16:46.785Z,101585.44
2022-08-07T23:19:51.327Z,101576.28
2022-08-07T23:22:39.923Z,101575.66
2022-08-07T23:25:34.988Z,101584.28
2022-08-07T23:28:22.142Z,101566.22
2022-08-07T23:32:50.113Z,101571.81
2022-08-07T23:34:37.558Z,101575.47
2022-08-07T23:37:29.370Z,101580.31
2022-08-07T23:40:03.062Z,101586.00
2022-08-07T23:42:43.716Z,101594.16
2022-08-07T23:45:33.091Z,101591.72
2022-08-07T23:48:16.343Z,101598.69
2022-08-07T23:50:48.651Z,101593.22
2022-08-07T23:53:49.540Z,101592.59
2022-08-07T23:56:34.964Z,101585.63
